sensor_id;sensor_type;location;lat;lon;timestamp;pressure;altitude;pressure_sealevel;temperature;humidity
53300;BME280;39187;48.476;8.310;2022-09-02T00:01:28;91380.88;;;12.22;100.00
53300;BME280;39187;48.476;8.310;2022-09-02T00:04:03;91377.19;;;12.00;100.00
53300;BME280;39187;48.476;8.310;2022-09-02T00:06:30;91377.03;;;11.91;100.00
53300;BME280;39187;48.476;8.310;2022-09-02T00:08:57;91371.38;;;12.05;100.00
53300;BME280;39187;48.476;8.310;2022-09-02T00:11:26;91367.13;;;12.08;100.00
53300;BME280;39187;48.476;8.310;2022-09-02T00:13:53;91372.28;;;11.98;100.00
53300;BME280;39187;48.476;8.310;2022-09-02T00:16:19;91374.09;;;12.18;100.00
53300;BME280;39187;48.476;8.310;2022-09-02T00:18:48;91366.88;;;11.86;100.00
53300;BME280;39187;48.476;8.310;2022-09-02T00:21:16;91366.63;;;11.96;100.00
53300;BME280;39187;48.476;8.310;2022-09-02T00:23:43;91362.78;;;11.97;100.00
53300;BME280;39187;48.476;8.310;2022-09-02T00:26:11;91362.72;;;12.01;100.00
53300;BME280;39187;48.476;8.310;2022-09-02T00:28:38;91364.28;;;11.82;100.00
53300;BME280;39187;48.476;8.310;2022-09-02T00:31:04;91363.28;;;11.92;100.00
53300;BME280;39187;48.476;8.310;2022-09-02T00:33:30;91360.03;;;11.85;100.00
53300;BME280;39187;48.476;8.310;2022-09-02T00:36:00;91355.03;;;11.87;100.00
53300;BME280;39187;48.476;8.310;2022-09-02T00:38:27;91359.59;;;11.70;100.00
53300;BME280;39187;48.476;8.310;2022-09-02T00:40:53;91351.91;;;11.72;100.00
53300;BME280;39187;48.476;8.310;2022-09-02T00:46:05;91351.75;;;11.63;100.00
53300;BME280;39187;48.476;8.310;2022-09-02T00:48:31;91343.72;;;11.83;100.00
53300;BME280;39187;48.476;8.310;2022-09-02T00:50:57;91345.13;;;11.87;100.00
53300;BME280;39187;48.476;8.310;2022-09-02T00:53:26;91345.38;;;11.77;100.00
53300;BME280;39187;48.476;8.310;2022-09-02T00:55:52;91342.78;;;11.89;100.00
53300;BME280;39187;48.476;8.310;2022-09-02T00:58:21;91341.00;;;11.66;100.00
53300;BME280;39187;48.476;8.310;2022-09-02T01:00:50;91343.66;;;11.66;100.00
53300;BME280;39187;48.476;8.310;2022-09-02T01:03:21;91343.53;;;11.74;100.00
53300;BME280;39187;48.476;8.310;2022-09-02T01:05:48;91342.00;;;11.73;100.00
53300;BME280;39187;48.476;8.310;2022-09-02T01:08:16;91345.94;;;11.84;100.00
53300;BME280;39187;48.476;8.310;2022-09-02T01:10:44;91352.34;;;11.71;100.00
53300;BME280;39187;48.476;8.310;2022-09-02T01:13:15;91340.25;;;11.66;100.00
53300;BME280;39187;48.476;8.310;2022-09-02T01:15:45;91341.75;;;11.51;100.00
53300;BME280;39187;48.476;8.310;2022-09-02T01:18:18;91348.25;;;11.66;100.00
53300;BME280;39187;48.476;8.310;2022-09-02T01:20:46;91334.25;;;11.62;100.00
53300;BME280;39187;48.476;8.310;2022-09-02T01:23:14;91349.75;;;11.51;100.00
53300;BME280;39187;48.476;8.310;2022-09-02T01:25:41;91342.09;;;11.69;100.00
53300;BME280;39187;48.476;8.310;2022-09-02T01:28:11;91344.00;;;11.69;100.00
53300;BME280;39187;48.476;8.310;2022-09-02T01:30:40;91340.50;;;11.55;100.00
53300;BME280;39187;48.476;8.310;2022-09-02T01:33:07;91336.41;;;11.51;100.00
53300;BME280;39187;48.476;8.310;2022-09-02T01:35:34;91338.59;;;11.56;100.00
53300;BME280;39187;48.476;8.310;2022-09-02T01:37:59;91339.06;;;11.35;100.00
53300;BME280;39187;48.476;8.310;2022-09-02T01:40:27;91331.78;;;11.71;99.42
53300;BME280;39187;48.476;8.310;2022-09-02T01:42:57;91327.56;;;11.38;100.00
53300;BME280;39187;48.476;8.310;2022-09-02T01:45:23;91333.16;;;11.59;99.86
53300;BME280;39187;48.476;8.310;2022-09-02T01:47:50;91332.31;;;11.30;100.00
53300;BME280;39187;48.476;8.310;2022-09-02T01:50:17;91330.91;;;11.42;100.00
53300;BME280;39187;48.476;8.310;2022-09-02T01:52:43;91318.69;;;11.44;98.90
53300;BME280;39187;48.476;8.310;2022-09-02T01:55:09;91322.16;;;11.25;99.30
53300;BME280;39187;48.476;8.310;2022-09-02T01:57:35;91321.09;;;11.39;98.75
53300;BME280;39187;48.476;8.310;2022-09-02T02:00:01;91320.19;;;11.45;98.56
53300;BME280;39187;48.476;8.310;2022-09-02T02:02:27;91316.97;;;11.34;98.34
53300;BME280;39187;48.476;8.310;2022-09-02T02:04:53;91318.22;;;11.30;98.82
53300;BME280;39187;48.476;8.310;2022-09-02T02:07:19;91319.50;;;11.41;98.04
53300;BME280;39187;48.476;8.310;2022-09-02T02:09:47;91318.13;;;11.33;98.79
53300;BME280;39187;48.476;8.310;2022-09-02T02:12:13;91317.41;;;11.49;97.20
53300;BME280;39187;48.476;8.310;2022-09-02T02:14:39;91312.84;;;11.49;97.81
53300;BME280;39187;48.476;8.310;2022-09-02T02:17:05;91311.69;;;11.14;99.98
53300;BME280;39187;48.476;8.310;2022-09-02T02:19:31;91325.22;;;11.40;98.25
53300;BME280;39187;48.476;8.310;2022-09-02T02:21:57;91321.53;;;11.17;98.30
53300;BME280;39187;48.476;8.310;2022-09-02T02:24:23;91317.22;;;11.23;97.36
53300;BME280;39187;48.476;8.310;2022-09-02T02:26:49;91323.81;;;11.19;98.52
53300;BME280;39187;48.476;8.310;2022-09-02T02:29:15;91318.22;;;11.30;97.46
53300;BME280;39187;48.476;8.310;2022-09-02T02:31:41;91318.22;;;11.30;96.87
53300;BME280;39187;48.476;8.310;2022-09-02T02:34:07;91315.13;;;11.15;97.45
53300;BME280;39187;48.476;8.310;2022-09-02T02:36:33;91307.13;;;11.15;97.16
53300;BME280;39187;48.476;8.310;2022-09-02T02:38:58;91306.56;;;11.23;96.18
53300;BME280;39187;48.476;8.310;2022-09-02T02:41:26;91314.00;;;11.32;95.56
53300;BME280;39187;48.476;8.310;2022-09-02T02:43:52;91314.94;;;11.06;96.96
53300;BME280;39187;48.476;8.310;2022-09-02T02:46:18;91311.88;;;11.07;97.49
53300;BME280;39187;48.476;8.310;2022-09-02T02:48:44;91309.53;;;11.09;97.12
53300;BME280;39187;48.476;8.310;2022-09-02T02:51:10;91304.28;;;11.06;98.36
53300;BME280;39187;48.476;8.310;2022-09-02T02:53:35;91312.91;;;11.13;98.09
53300;BME280;39187;48.476;8.310;2022-09-02T02:56:02;91310.38;;;11.06;97.67
53300;BME280;39187;48.476;8.310;2022-09-02T02:58:28;91311.13;;;11.07;99.17
53300;BME280;39187;48.476;8.310;2022-09-02T03:00:55;91312.53;;;11.11;98.10
53300;BME280;39187;48.476;8.310;2022-09-02T03:03:20;91295.97;;;11.04;98.48
53300;BME280;39187;48.476;8.310;2022-09-02T03:05:47;91305.56;;;10.81;99.23
53300;BME280;39187;48.476;8.310;2022-09-02T03:08:15;91305.56;;;11.17;97.46
53300;BME280;39187;48.476;8.310;2022-09-02T03:10:41;91308.91;;;10.85;99.06
53300;BME280;39187;48.476;8.310;2022-09-02T03:13:08;91305.41;;;10.89;98.95
53300;BME280;39187;48.476;8.310;2022-09-02T03:15:36;91309.81;;;10.95;98.39
53300;BME280;39187;48.476;8.310;2022-09-02T03:18:02;91311.75;;;10.95;98.48
53300;BME280;39187;48.476;8.310;2022-09-02T03:20:28;91305.69;;;10.94;97.88
53300;BME280;39187;48.476;8.310;2022-09-02T03:22:56;91311.19;;;11.03;96.86
53300;BME280;39187;48.476;8.310;2022-09-02T03:25:24;91296.09;;;10.80;98.54
53300;BME280;39187;48.476;8.310;2022-09-02T03:27:49;91301.06;;;10.78;97.59
53300;BME280;39187;48.476;8.310;2022-09-02T03:30:22;91291.94;;;10.96;96.83
53300;BME280;39187;48.476;8.310;2022-09-02T03:32:53;91293.28;;;10.68;97.79
53300;BME280;39187;48.476;8.310;2022-09-02T03:35:20;91296.75;;;10.84;95.99
53300;BME280;39187;48.476;8.310;2022-09-02T03:37:47;91295.63;;;11.02;94.74
53300;BME280;39187;48.476;8.310;2022-09-02T03:40:17;91300.41;;;10.91;95.72
53300;BME280;39187;48.476;8.310;2022-09-02T03:42:43;91293.28;;;10.88;95.25
53300;BME280;39187;48.476;8.310;2022-09-02T03:45:10;91297.31;;;10.56;97.34
53300;BME280;39187;48.476;8.310;2022-09-02T03:47:36;91305.78;;;10.51;98.31
53300;BME280;39187;48.476;8.310;2022-09-02T03:50:04;91291.94;;;10.60;96.75
53300;BME280;39187;48.476;8.310;2022-09-02T03:52:31;91298.81;;;10.77;96.27
53300;BME280;39187;48.476;8.310;2022-09-02T03:54:57;91291.78;;;10.67;96.54
53300;BME280;39187;48.476;8.310;2022-09-02T03:57:22;91290.38;;;10.42;98.35
53300;BME280;39187;48.476;8.310;2022-09-02T03:59:51;91291.78;;;10.67;96.87
53300;BME280;39187;48.476;8.310;2022-09-02T04:02:16;91291.84;;;10.63;97.55
53300;BME280;39187;48.476;8.310;2022-09-02T04:04:42;91293.78;;;10.43;98.58
53300;BME280;39187;48.476;8.310;2022-09-02T04:07:08;91291.41;;;10.49;98.48
53300;BME280;39187;48.476;8.310;2022-09-02T04:09:34;91285.38;;;10.64;97.47
53300;BME280;39187;48.476;8.310;2022-09-02T04:11:59;91286.22;;;10.61;96.62
53300;BME280;39187;48.476;8.310;2022-09-02T04:14:25;91288.88;;;10.41;97.33
53300;BME280;39187;48.476;8.310;2022-09-02T04:16:51;91290.78;;;10.61;97.02
53300;BME280;39187;48.476;8.310;2022-09-02T04:19:17;91297.47;;;10.49;97.08
53300;BME280;39187;48.476;8.310;2022-09-02T04:21:42;91285.94;;;10.56;96.13
53300;BME280;39187;48.476;8.310;2022-09-02T04:24:10;91291.44;;;10.45;96.36
53300;BME280;39187;48.476;8.310;2022-09-02T04:26:36;91297.25;;;10.60;95.50
53300;BME280;39187;48.476;8.310;2022-09-02T04:29:03;91285.69;;;10.30;97.35
53300;BME280;39187;48.476;8.310;2022-09-02T04:31:29;91291.72;;;10.51;96.14
53300;BME280;39187;48.476;8.310;2022-09-02T04:33:56;91287.16;;;10.31;96.79
53300;BME280;39187;48.476;8.310;2022-09-02T04:36:23;91280.94;;;10.38;96.41
53300;BME280;39187;48.476;8.310;2022-09-02T04:38:49;91280.94;;;10.38;96.30
53300;BME280;39187;48.476;8.310;2022-09-02T04:41:21;91276.50;;;10.51;95.60
53300;BME280;39187;48.476;8.310;2022-09-02T04:43:48;91279.03;;;10.19;97.35
53300;BME280;39187;48.476;8.310;2022-09-02T04:46:15;91285.00;;;10.03;98.22
53300;BME280;39187;48.476;8.310;2022-09-02T04:48:42;91280.13;;;10.21;96.92
53300;BME280;39187;48.476;8.310;2022-09-02T04:51:11;91272.66;;;10.13;97.04
53300;BME280;39187;48.476;8.310;2022-09-02T04:53:38;91276.94;;;10.06;97.24
53300;BME280;39187;48.476;8.310;2022-09-02T04:56:06;91276.31;;;10.22;96.37
53300;BME280;39187;48.476;8.310;2022-09-02T04:58:33;91275.22;;;10.20;96.57
53300;BME280;39187;48.476;8.310;2022-09-02T05:01:03;91282.38;;;10.23;96.13
53300;BME280;39187;48.476;8.310;2022-09-02T05:03:30;91266.63;;;10.32;95.20
53300;BME280;39187;48.476;8.310;2022-09-02T05:06:02;91274.88;;;10.57;93.45
53300;BME280;39187;48.476;8.310;2022-09-02T05:08:28;91269.47;;;10.97;90.76
53300;BME280;39187;48.476;8.310;2022-09-02T05:10:53;91277.72;;;11.02;89.40
53300;BME280;39187;48.476;8.310;2022-09-02T05:13:19;91270.19;;;11.17;88.11
53300;BME280;39187;48.476;8.310;2022-09-02T05:15:45;91285.19;;;11.59;86.40
53300;BME280;39187;48.476;8.310;2022-09-02T05:18:10;91284.19;;;11.53;85.05
53300;BME280;39187;48.476;8.310;2022-09-02T05:20:38;91283.13;;;11.51;84.58
53300;BME280;39187;48.476;8.310;2022-09-02T05:23:05;91282.84;;;12.39;81.74
53300;BME280;39187;48.476;8.310;2022-09-02T05:25:31;91272.59;;;11.92;81.81
53300;BME280;39187;48.476;8.310;2022-09-02T05:27:56;91279.91;;;12.62;78.59
53300;BME280;39187;48.476;8.310;2022-09-02T05:30:22;91285.91;;;12.37;77.71
53300;BME280;39187;48.476;8.310;2022-09-02T05:32:48;91282.28;;;11.86;79.63
53300;BME280;39187;48.476;8.310;2022-09-02T05:35:14;91287.59;;;12.60;76.31
53300;BME280;39187;48.476;8.310;2022-09-02T05:37:40;91279.72;;;13.23;73.67
53300;BME280;39187;48.476;8.310;2022-09-02T05:40:06;91278.00;;;13.42;73.72
53300;BME280;39187;48.476;8.310;2022-09-02T05:42:32;91274.66;;;13.38;72.30
53300;BME280;39187;48.476;8.310;2022-09-02T05:44:58;91284.81;;;13.81;69.41
53300;BME280;39187;48.476;8.310;2022-09-02T05:47:24;91278.22;;;14.29;67.55
53300;BME280;39187;48.476;8.310;2022-09-02T05:49:50;91269.25;;;14.58;65.55
53300;BME280;39187;48.476;8.310;2022-09-02T05:52:15;91277.53;;;13.82;68.21
53300;BME280;39187;48.476;8.310;2022-09-02T05:54:42;91259.78;;;14.10;66.83
53300;BME280;39187;48.476;8.310;2022-09-02T05:57:13;91275.91;;;14.97;64.98
53300;BME280;39187;48.476;8.310;2022-09-02T05:59:40;91273.81;;;14.35;65.00
53300;BME280;39187;48.476;8.310;2022-09-02T06:02:10;91271.16;;;15.32;62.38
53300;BME280;39187;48.476;8.310;2022-09-02T06:04:41;91266.19;;;14.68;64.26
53300;BME280;39187;48.476;8.310;2022-09-02T06:07:07;91281.03;;;14.60;65.00
53300;BME280;39187;48.476;8.310;2022-09-02T06:09:33;91266.41;;;15.76;60.80
53300;BME280;39187;48.476;8.310;2022-09-02T06:11:59;91268.13;;;14.68;62.56
53300;BME280;39187;48.476;8.310;2022-09-02T06:14:25;91273.84;;;15.01;62.57
53300;BME280;39187;48.476;8.310;2022-09-02T06:16:52;91267.78;;;15.49;61.33
53300;BME280;39187;48.476;8.310;2022-09-02T06:19:19;91272.34;;;15.31;62.19
53300;BME280;39187;48.476;8.310;2022-09-02T06:21:47;91283.34;;;15.54;60.88
53300;BME280;39187;48.476;8.310;2022-09-02T06:24:13;91269.78;;;16.43;58.00
53300;BME280;39187;48.476;8.310;2022-09-02T06:26:40;91273.03;;;15.93;58.40
53300;BME280;39187;48.476;8.310;2022-09-02T06:29:07;91271.56;;;16.28;58.68
53300;BME280;39187;48.476;8.310;2022-09-02T06:31:33;91269.78;;;16.80;55.98
53300;BME280;39187;48.476;8.310;2022-09-02T06:33:59;91269.84;;;15.67;58.95
53300;BME280;39187;48.476;8.310;2022-09-02T06:36:26;91266.03;;;16.14;57.42
53300;BME280;39187;48.476;8.310;2022-09-02T06:38:54;91271.34;;;15.77;58.57
53300;BME280;39187;48.476;8.310;2022-09-02T06:41:24;91253.75;;;15.76;58.68
53300;BME280;39187;48.476;8.310;2022-09-02T06:43:54;91268.59;;;16.54;57.06
53300;BME280;39187;48.476;8.310;2022-09-02T06:46:23;91272.53;;;17.22;55.02
53300;BME280;39187;48.476;8.310;2022-09-02T06:48:49;91269.25;;;17.27;53.95
53300;BME280;39187;48.476;8.310;2022-09-02T06:51:20;91270.09;;;16.82;54.85
53300;BME280;39187;48.476;8.310;2022-09-02T06:53:45;91273.09;;;17.35;54.40
53300;BME280;39187;48.476;8.310;2022-09-02T06:56:11;91266.59;;;17.60;53.87
53300;BME280;39187;48.476;8.310;2022-09-02T06:58:37;91266.28;;;17.16;53.82
53300;BME280;39187;48.476;8.310;2022-09-02T07:01:03;91262.19;;;17.39;54.66
53300;BME280;39187;48.476;8.310;2022-09-02T07:03:29;91268.34;;;18.43;50.55
53300;BME280;39187;48.476;8.310;2022-09-02T07:06:13;91267.03;;;17.58;51.64
53300;BME280;39187;48.476;8.310;2022-09-02T07:08:41;91260.25;;;18.29;50.93
53300;BME280;39187;48.476;8.310;2022-09-02T07:11:15;91259.66;;;17.77;50.98
53300;BME280;39187;48.476;8.310;2022-09-02T07:13:41;91259.75;;;17.92;51.71
53300;BME280;39187;48.476;8.310;2022-09-02T07:16:07;91265.66;;;17.72;52.14
53300;BME280;39187;48.476;8.310;2022-09-02T07:18:33;91252.78;;;18.00;50.71
53300;BME280;39187;48.476;8.310;2022-09-02T07:20:59;91268.56;;;18.16;50.48
53300;BME280;39187;48.476;8.310;2022-09-02T07:23:25;91253.59;;;18.15;51.36
53300;BME280;39187;48.476;8.310;2022-09-02T07:25:51;91249.69;;;17.92;50.33
53300;BME280;39187;48.476;8.310;2022-09-02T07:28:17;91242.88;;;17.82;51.43
53300;BME280;39187;48.476;8.310;2022-09-02T07:30:43;91250.66;;;18.28;50.63
53300;BME280;39187;48.476;8.310;2022-09-02T07:33:11;91250.63;;;18.90;50.25
53300;BME280;39187;48.476;8.310;2022-09-02T07:35:41;91242.84;;;18.54;50.35
53300;BME280;39187;48.476;8.310;2022-09-02T07:38:08;91254.16;;;18.43;50.14
53300;BME280;39187;48.476;8.310;2022-09-02T07:40:34;91240.78;;;19.31;48.43
53300;BME280;39187;48.476;8.310;2022-09-02T07:43:02;91244.31;;;18.93;48.64
53300;BME280;39187;48.476;8.310;2022-09-02T07:45:30;91254.84;;;17.81;51.22
53300;BME280;39187;48.476;8.310;2022-09-02T07:47:56;91249.22;;;18.41;49.30
53300;BME280;39187;48.476;8.310;2022-09-02T07:50:22;91239.31;;;18.48;49.35
53300;BME280;39187;48.476;8.310;2022-09-02T07:52:55;91253.16;;;19.38;48.41
53300;BME280;39187;48.476;8.310;2022-09-02T07:55:23;91253.34;;;19.19;48.25
53300;BME280;39187;48.476;8.310;2022-09-02T07:57:50;91264.41;;;19.21;47.04
53300;BME280;39187;48.476;8.310;2022-09-02T08:00:25;91259.22;;;19.18;46.25
53300;BME280;39187;48.476;8.310;2022-09-02T08:02:52;91260.88;;;18.24;48.84
53300;BME280;39187;48.476;8.310;2022-09-02T08:05:17;91254.72;;;18.47;49.11
53300;BME280;39187;48.476;8.310;2022-09-02T08:07:43;91254.88;;;18.67;49.44
53300;BME280;39187;48.476;8.310;2022-09-02T08:10:09;91254.63;;;19.09;48.40
53300;BME280;39187;48.476;8.310;2022-09-02T08:12:38;91259.38;;;19.14;48.04
53300;BME280;39187;48.476;8.310;2022-09-02T08:15:05;91255.28;;;19.34;47.73
53300;BME280;39187;48.476;8.310;2022-09-02T08:17:31;91261.34;;;19.14;46.76
53300;BME280;39187;48.476;8.310;2022-09-02T08:19:56;91269.88;;;18.21;49.55
53300;BME280;39187;48.476;8.310;2022-09-02T08:22:22;91271.00;;;18.53;48.07
53300;BME280;39187;48.476;8.310;2022-09-02T08:24:48;91255.47;;;19.30;47.48
53300;BME280;39187;48.476;8.310;2022-09-02T08:27:14;91266.09;;;19.04;48.09
53300;BME280;39187;48.476;8.310;2022-09-02T08:29:39;91263.19;;;19.67;46.93
53300;BME280;39187;48.476;8.310;2022-09-02T08:32:05;91276.03;;;19.28;48.24
53300;BME280;39187;48.476;8.310;2022-09-02T08:34:31;91256.19;;;19.75;45.78
53300;BME280;39187;48.476;8.310;2022-09-02T08:36:56;91258.53;;;19.52;45.08
53300;BME280;39187;48.476;8.310;2022-09-02T08:39:22;91256.56;;;19.82;44.95
53300;BME280;39187;48.476;8.310;2022-09-02T08:44:36;91258.06;;;18.42;47.46
53300;BME280;39187;48.476;8.310;2022-09-02T08:47:04;91249.72;;;19.22;45.94
53300;BME280;39187;48.476;8.310;2022-09-02T08:49:40;91245.81;;;19.23;45.48
53300;BME280;39187;48.476;8.310;2022-09-02T08:52:17;91249.03;;;19.42;46.77
53300;BME280;39187;48.476;8.310;2022-09-02T08:54:51;91249.81;;;18.99;46.38
53300;BME280;39187;48.476;8.310;2022-09-02T08:57:22;91250.53;;;18.85;47.91
53300;BME280;39187;48.476;8.310;2022-09-02T08:59:56;91257.00;;;19.46;46.17
53300;BME280;39187;48.476;8.310;2022-09-02T09:05:30;91245.19;;;19.78;45.40
53300;BME280;39187;48.476;8.310;2022-09-02T09:08:26;91251.28;;;19.93;44.16
53300;BME280;39187;48.476;8.310;2022-09-02T09:11:09;91246.00;;;19.49;45.37
53300;BME280;39187;48.476;8.310;2022-09-02T09:16:42;91247.69;;;18.26;47.53
53300;BME280;39187;48.476;8.310;2022-09-02T09:21:56;91252.09;;;18.38;47.43
53300;BME280;39187;48.476;8.310;2022-09-02T09:24:43;91256.38;;;18.83;46.84
53300;BME280;39187;48.476;8.310;2022-09-02T09:27:16;91251.75;;;18.21;48.46
53300;BME280;39187;48.476;8.310;2022-09-02T09:29:42;91244.56;;;18.66;47.93
53300;BME280;39187;48.476;8.310;2022-09-02T09:32:30;91246.31;;;18.30;47.57
53300;BME280;39187;48.476;8.310;2022-09-02T09:35:07;91237.38;;;18.63;47.32
53300;BME280;39187;48.476;8.310;2022-09-02T09:39:59;91247.00;;;19.08;46.38
53300;BME280;39187;48.476;8.310;2022-09-02T09:42:36;91239.28;;;19.15;45.05
53300;BME280;39187;48.476;8.310;2022-09-02T09:45:27;91240.97;;;18.98;46.55
53300;BME280;39187;48.476;8.310;2022-09-02T09:48:22;91237.00;;;18.31;47.14
53300;BME280;39187;48.476;8.310;2022-09-02T09:55:58;91244.09;;;18.67;46.68
53300;BME280;39187;48.476;8.310;2022-09-02T10:01:31;91246.31;;;18.30;47.18
53300;BME280;39187;48.476;8.310;2022-09-02T10:06:44;91231.13;;;18.18;48.64
53300;BME280;39187;48.476;8.310;2022-09-02T10:12:01;91226.81;;;18.74;48.70
53300;BME280;39187;48.476;8.310;2022-09-02T10:37:01;91200.22;;;18.96;47.72
53300;BME280;39187;48.476;8.310;2022-09-02T10:45:23;91199.75;;;18.83;47.34
53300;BME280;39187;48.476;8.310;2022-09-02T10:50:44;91207.41;;;19.98;44.78
53300;BME280;39187;48.476;8.310;2022-09-02T10:53:19;91199.44;;;19.54;45.15
53300;BME280;39187;48.476;8.310;2022-09-02T10:55:58;91190.00;;;20.40;44.37
53300;BME280;39187;48.476;8.310;2022-09-02T10:58:47;91206.59;;;18.16;46.32
53300;BME280;39187;48.476;8.310;2022-09-02T11:01:42;91187.41;;;17.99;47.43
53300;BME280;39187;48.476;8.310;2022-09-02T11:07:17;91199.13;;;17.31;51.15
53300;BME280;39187;48.476;8.310;2022-09-02T11:09:51;91214.41;;;17.57;51.18
53300;BME280;39187;48.476;8.310;2022-09-02T11:12:28;91199.28;;;16.94;50.46
53300;BME280;39187;48.476;8.310;2022-09-02T11:15:01;91210.22;;;17.56;50.22
53300;BME280;39187;48.476;8.310;2022-09-02T11:17:51;91206.22;;;17.85;48.94
53300;BME280;39187;48.476;8.310;2022-09-02T11:20:45;91196.88;;;17.71;51.08
53300;BME280;39187;48.476;8.310;2022-09-02T11:26:37;91215.38;;;17.78;50.64
53300;BME280;39187;48.476;8.310;2022-09-02T11:29:35;91201.22;;;17.69;50.24
53300;BME280;39187;48.476;8.310;2022-09-02T11:32:16;91200.97;;;17.57;50.68
53300;BME280;39187;48.476;8.310;2022-09-02T11:34:47;91204.84;;;17.56;52.06
53300;BME280;39187;48.476;8.310;2022-09-02T11:37:41;91212.63;;;17.54;50.88
53300;BME280;39187;48.476;8.310;2022-09-02T11:40:34;91193.56;;;17.43;49.05
53300;BME280;39187;48.476;8.310;2022-09-02T11:54:13;91213.47;;;17.70;50.88
53300;BME280;39187;48.476;8.310;2022-09-02T11:56:49;91214.41;;;17.57;51.48
53300;BME280;39187;48.476;8.310;2022-09-02T12:02:44;91215.31;;;17.54;52.06
53300;BME280;39187;48.476;8.310;2022-09-02T12:10:58;91199.84;;;17.73;51.35
53300;BME280;39187;48.476;8.310;2022-09-02T12:13:37;91197.75;;;17.77;52.58
53300;BME280;39187;48.476;8.310;2022-09-02T12:18:37;91183.88;;;17.70;51.61
53300;BME280;39187;48.476;8.310;2022-09-02T12:21:14;91187.94;;;17.56;52.49
53300;BME280;39187;48.476;8.310;2022-09-02T12:26:27;91184.78;;;17.90;51.68
53300;BME280;39187;48.476;8.310;2022-09-02T12:29:32;91177.38;;;18.00;51.52
53300;BME280;39187;48.476;8.310;2022-09-02T12:31:58;91185.47;;;18.00;51.21
53300;BME280;39187;48.476;8.310;2022-09-02T12:36:53;91177.63;;;17.87;51.43
53300;BME280;39187;48.476;8.310;2022-09-02T12:45:10;91159.41;;;18.21;51.22
53300;BME280;39187;48.476;8.310;2022-09-02T12:50:26;91160.09;;;18.30;50.52
53300;BME280;39187;48.476;8.310;2022-09-02T12:55:59;91150.91;;;18.37;50.77
53300;BME280;39187;48.476;8.310;2022-09-02T12:58:37;91145.88;;;18.30;50.63
53300;BME280;39187;48.476;8.310;2022-09-02T13:04:24;91144.94;;;18.33;51.87
53300;BME280;39187;48.476;8.310;2022-09-02T13:07:01;91138.72;;;18.27;51.33
53300;BME280;39187;48.476;8.310;2022-09-02T13:32:24;91129.25;;;18.46;51.56
53300;BME280;39187;48.476;8.310;2022-09-02T13:34:52;91124.22;;;18.39;51.95
53300;BME280;39187;48.476;8.310;2022-09-02T13:37:37;91119.25;;;18.61;50.71
53300;BME280;39187;48.476;8.310;2022-09-02T13:40:15;91119.25;;;18.61;51.60
53300;BME280;39187;48.476;8.310;2022-09-02T13:42:50;91106.56;;;18.82;49.44
53300;BME280;39187;48.476;8.310;2022-09-02T13:45:21;91109.00;;;18.80;50.44
53300;BME280;39187;48.476;8.310;2022-09-02T13:47:50;91101.19;;;18.38;50.87
53300;BME280;39187;48.476;8.310;2022-09-02T13:50:19;91093.56;;;18.51;50.50
53300;BME280;39187;48.476;8.310;2022-09-02T13:52:49;91101.59;;;18.60;49.84
53300;BME280;39187;48.476;8.310;2022-09-02T13:55:15;91098.59;;;18.29;50.38
53300;BME280;39187;48.476;8.310;2022-09-02T13:57:44;91091.16;;;18.38;50.25
53300;BME280;39187;48.476;8.310;2022-09-02T14:00:14;91093.56;;;18.51;50.59
53300;BME280;39187;48.476;8.310;2022-09-02T14:02:54;91085.59;;;18.57;49.96
53300;BME280;39187;48.476;8.310;2022-09-02T14:05:21;91098.56;;;18.14;50.82
53300;BME280;39187;48.476;8.310;2022-09-02T14:07:53;91086.69;;;18.50;49.97
53300;BME280;39187;48.476;8.310;2022-09-02T14:10:22;91083.63;;;18.42;51.76
53300;BME280;39187;48.476;8.310;2022-09-02T14:12:49;91088.81;;;18.46;50.38
53300;BME280;39187;48.476;8.310;2022-09-02T14:15:21;91094.31;;;18.37;50.51
53300;BME280;39187;48.476;8.310;2022-09-02T14:18:12;91085.94;;;18.35;50.13
53300;BME280;39187;48.476;8.310;2022-09-02T14:21:00;91080.47;;;18.73;50.22
53300;BME280;39187;48.476;8.310;2022-09-02T14:23:30;91080.47;;;18.73;50.07
53300;BME280;39187;48.476;8.310;2022-09-02T14:26:00;91082.44;;;18.58;51.11
53300;BME280;39187;48.476;8.310;2022-09-02T14:28:29;91073.50;;;18.67;50.24
53300;BME280;39187;48.476;8.310;2022-09-02T14:30:59;91075.78;;;18.89;50.40
53300;BME280;39187;48.476;8.310;2022-09-02T14:33:36;91081.47;;;18.91;52.16
53300;BME280;39187;48.476;8.310;2022-09-02T14:36:08;91072.38;;;18.88;50.21
53300;BME280;39187;48.476;8.310;2022-09-02T14:43:48;91074.72;;;19.15;50.33
53300;BME280;39187;48.476;8.310;2022-09-02T14:46:35;91082.03;;;18.95;49.96
53300;BME280;39187;48.476;8.310;2022-09-02T14:49:05;91072.38;;;18.88;49.47
53300;BME280;39187;48.476;8.310;2022-09-02T14:51:53;91074.50;;;18.84;49.85
53300;BME280;39187;48.476;8.310;2022-09-02T14:54:40;91082.50;;;18.78;50.76
53300;BME280;39187;48.476;8.310;2022-09-02T14:57:33;91078.22;;;18.87;50.98
53300;BME280;39187;48.476;8.310;2022-09-02T15:00:08;91084.91;;;18.91;49.90
53300;BME280;39187;48.476;8.310;2022-09-02T15:02:41;91079.81;;;18.78;49.94
53300;BME280;39187;48.476;8.310;2022-09-02T15:05:10;91085.00;;;18.82;50.32
53300;BME280;39187;48.476;8.310;2022-09-02T15:07:37;91088.19;;;18.80;50.27
53300;BME280;39187;48.476;8.310;2022-09-02T15:10:03;91078.59;;;18.79;50.43
53300;BME280;39187;48.476;8.310;2022-09-02T15:12:32;91078.84;;;18.96;49.88
53300;BME280;39187;48.476;8.310;2022-09-02T15:14:58;91089.50;;;18.70;50.62
53300;BME280;39187;48.476;8.310;2022-09-02T15:17:25;91076.94;;;18.67;50.75
53300;BME280;39187;48.476;8.310;2022-09-02T15:19:51;91085.03;;;18.67;51.07
53300;BME280;39187;48.476;8.310;2022-09-02T15:22:18;91073.09;;;18.89;50.47
53300;BME280;39187;48.476;8.310;2022-09-02T15:24:44;91072.47;;;18.79;50.65
53300;BME280;39187;48.476;8.310;2022-09-02T15:27:12;91067.69;;;18.89;51.05
53300;BME280;39187;48.476;8.310;2022-09-02T15:29:37;91075.16;;;18.94;51.17
53300;BME280;39187;48.476;8.310;2022-09-02T15:32:04;91071.94;;;18.75;51.55